createdAt,value
2022-10-23T00:00:03.969Z,17.13
2022-10-23T00:02:06.357Z,17.09
2022-10-23T00:04:20.325Z,17.06
2022-10-23T00:06:22.857Z,17.10
2022-10-23T00:08:24.927Z,17.12
2022-10-23T00:10:28.957Z,17.05
2022-10-23T00:12:31.124Z,17.06
2022-10-23T00:14:36.478Z,16.99
2022-10-23T00:16:38.703Z,17.01
2022-10-23T00:18:41.012Z,17.13
2022-10-23T00:20:43.190Z,17.16
2022-10-23T00:22:45.500Z,17.16
2022-10-23T00:24:47.816Z,17.19
2022-10-23T00:26:51.099Z,17.19
2022-10-23T00:28:54.469Z,17.19
2022-10-23T00:30:56.901Z,17.09
2022-10-23T00:32:59.008Z,17.06
2022-10-23T00:35:01.331Z,17.09
2022-10-23T00:37:03.460Z,17.06
2022-10-23T00:39:06.532Z,17.02
2022-10-23T00:41:14.935Z,17.06
2022-10-23T00:43:23.148Z,17.01
2022-10-23T00:45:27.437Z,16.97
2022-10-23T00:47:31.971Z,16.94
2022-10-23T00:49:34.647Z,16.97
2022-10-23T00:51:43.330Z,16.97
2022-10-23T00:54:01.408Z,17.00
2022-10-23T00:56:15.214Z,17.01
2022-10-23T00:58:20.483Z,17.02
2022-10-23T01:00:32.091Z,16.99
2022-10-23T01:02:35.014Z,17.02
2022-10-23T01:04:38.058Z,17.02
2022-10-23T01:07:15.943Z,16.94
2022-10-23T01:09:42.618Z,16.92
2022-10-23T01:12:07.760Z,16.94
2022-10-23T01:14:18.817Z,16.96
2022-10-23T01:16:27.269Z,17.02
2022-10-23T01:18:41.670Z,17.00
2022-10-23T01:20:43.811Z,17.01
2022-10-23T01:22:45.754Z,17.03
2022-10-23T01:25:14.118Z,16.98
2022-10-23T01:27:25.384Z,17.01
2022-10-23T01:29:39.413Z,17.00
2022-10-23T01:31:57.121Z,16.96
2022-10-23T01:34:06.383Z,16.93
2022-10-23T01:36:12.969Z,16.91
2022-10-23T01:38:27.492Z,16.95
2022-10-23T01:40:44.588Z,16.99
2022-10-23T01:42:51.014Z,16.96
2022-10-23T01:45:31.639Z,16.94
2022-10-23T01:47:38.677Z,17.02
2022-10-23T01:49:44.870Z,16.99
2022-10-23T01:51:51.971Z,16.98
2022-10-23T01:53:58.650Z,16.97
2022-10-23T01:56:03.055Z,17.01
2022-10-23T01:58:08.695Z,16.98
2022-10-23T02:00:19.016Z,16.95
2022-10-23T02:02:28.776Z,17.00
2022-10-23T02:04:41.408Z,16.97
2022-10-23T02:06:43.918Z,17.02
2022-10-23T02:08:46.280Z,17.00
2022-10-23T02:11:14.501Z,16.93
2022-10-23T02:13:25.775Z,16.85
2022-10-23T02:15:36.387Z,16.85
2022-10-23T02:18:03.701Z,16.73
2022-10-23T02:20:08.901Z,16.76
2022-10-23T02:22:26.441Z,16.74
2022-10-23T02:24:36.725Z,16.70
2022-10-23T02:26:47.093Z,16.76
2022-10-23T02:28:58.624Z,16.78
2022-10-23T02:31:04.035Z,16.79
2022-10-23T02:33:09.263Z,16.84
2022-10-23T02:35:13.466Z,16.81
2022-10-23T02:37:15.965Z,16.83
2022-10-23T02:39:18.360Z,16.84
2022-10-23T02:41:20.320Z,16.87
2022-10-23T02:43:32.567Z,16.83
2022-10-23T02:46:00.816Z,16.83
2022-10-23T02:48:27.716Z,16.85
2022-10-23T02:51:05.043Z,16.80
2022-10-23T02:53:19.139Z,16.81
2022-10-23T02:55:49.958Z,16.80
2022-10-23T02:58:17.741Z,16.70
2022-10-23T03:00:24.244Z,16.70
2022-10-23T03:02:33.380Z,16.66
2022-10-23T03:04:37.485Z,16.62
2022-10-23T03:06:39.785Z,16.69
2022-10-23T03:08:44.287Z,16.68
2022-10-23T03:10:46.403Z,16.65
2022-10-23T03:12:49.070Z,16.66
2022-10-23T03:14:51.794Z,16.71
2022-10-23T03:16:54.404Z,16.72
2022-10-23T03:19:00.824Z,16.69
2022-10-23T03:21:04.795Z,16.65
2022-10-23T03:23:13.747Z,16.54
2022-10-23T03:25:16.099Z,16.61
2022-10-23T03:28:20.681Z,16.53
2022-10-23T03:30:23.546Z,16.54
2022-10-23T03:32:29.555Z,16.57
2022-10-23T03:34:32.102Z,16.55
2022-10-23T03:36:37.041Z,16.55
2022-10-23T03:38:39.966Z,16.57
2022-10-23T03:40:43.303Z,16.59
2022-10-23T03:42:47.478Z,16.57
2022-10-23T03:44:53.981Z,16.56
2022-10-23T03:46:56.568Z,16.57
2022-10-23T03:48:59.516Z,16.60
2022-10-23T03:51:05.388Z,16.57
2022-10-23T03:53:07.399Z,16.59
2022-10-23T03:55:09.811Z,16.62
2022-10-23T03:57:12.375Z,16.60
2022-10-23T03:59:14.437Z,16.60
2022-10-23T04:01:16.588Z,16.64
2022-10-23T04:03:20.513Z,16.56
2022-10-23T04:05:22.726Z,16.62
2022-10-23T04:07:29.923Z,16.62
2022-10-23T04:09:36.227Z,16.62
2022-10-23T04:11:39.044Z,16.64
2022-10-23T04:13:41.009Z,16.66
2022-10-23T04:15:50.683Z,16.60
2022-10-23T04:17:52.903Z,16.66
2022-10-23T04:19:55.357Z,16.61
2022-10-23T04:21:57.431Z,16.62
2022-10-23T04:23:59.768Z,16.63
2022-10-23T04:26:02.373Z,16.62
2022-10-23T04:28:04.851Z,16.66
2022-10-23T04:30:12.703Z,16.64
2022-10-23T04:32:14.863Z,16.62
2022-10-23T04:34:19.663Z,16.59
2022-10-23T04:36:22.000Z,16.61
2022-10-23T04:38:24.132Z,16.58
2022-10-23T04:40:25.983Z,16.52
2022-10-23T04:42:29.965Z,16.51
2022-10-23T04:44:35.205Z,16.51
2022-10-23T04:46:37.986Z,16.53
2022-10-23T04:48:40.613Z,16.56
2022-10-23T04:51:18.425Z,16.54
2022-10-23T04:53:31.146Z,16.53
2022-10-23T04:56:06.174Z,16.58
2022-10-23T04:58:21.385Z,16.53
2022-10-23T05:00:24.696Z,16.53
2022-10-23T05:02:29.372Z,16.54
2022-10-23T05:04:32.083Z,16.55
2022-10-23T05:07:12.713Z,16.47
2022-10-23T05:09:37.641Z,16.49
2022-10-23T05:12:02.892Z,16.45
2022-10-23T05:14:05.559Z,16.47
2022-10-23T05:16:07.518Z,16.46
2022-10-23T05:18:17.905Z,16.41
2022-10-23T05:20:23.921Z,16.43
2022-10-23T05:22:30.680Z,16.36
2022-10-23T05:24:33.383Z,16.33
2022-10-23T05:26:37.461Z,16.32
2022-10-23T05:28:42.797Z,16.39
2022-10-23T05:30:49.477Z,16.41
2022-10-23T05:32:55.397Z,16.39
2022-10-23T05:35:03.095Z,16.39
2022-10-23T05:37:09.075Z,16.39
2022-10-23T05:39:13.350Z,16.40
2022-10-23T05:44:50.154Z,16.35
2022-10-23T05:47:16.121Z,16.41
2022-10-23T05:49:41.042Z,16.40
2022-10-23T05:52:15.645Z,16.44
2022-10-23T05:54:28.155Z,16.43
2022-10-23T05:56:37.013Z,16.45
2022-10-23T05:59:05.549Z,16.45
2022-10-23T06:01:25.613Z,16.47
2022-10-23T06:03:36.246Z,16.46
2022-10-23T06:05:41.056Z,16.47
2022-10-23T06:08:03.944Z,16.49
2022-10-23T06:10:06.887Z,16.53
2022-10-23T06:12:14.206Z,16.54
2022-10-23T06:14:19.951Z,16.53
2022-10-23T06:16:26.181Z,16.50
2022-10-23T06:18:29.134Z,16.53
2022-10-23T06:20:39.500Z,16.48
2022-10-23T06:22:46.836Z,16.45
2022-10-23T06:25:09.674Z,16.37
2022-10-23T06:27:11.778Z,16.37
2022-10-23T06:29:18.231Z,16.39
2022-10-23T06:31:21.826Z,16.37
2022-10-23T06:33:25.795Z,16.32
2022-10-23T06:35:28.054Z,16.35
2022-10-23T06:37:30.048Z,16.42
2022-10-23T06:39:41.541Z,16.47
2022-10-23T06:41:53.096Z,16.48
2022-10-23T06:44:13.670Z,16.54
2022-10-23T06:46:24.489Z,16.53
2022-10-23T06:49:38.439Z,16.48
2022-10-23T06:51:41.697Z,16.55
2022-10-23T06:53:47.580Z,16.56
2022-10-23T06:56:09.174Z,16.60
2022-10-23T06:58:12.143Z,16.62
2022-10-23T07:00:40.625Z,16.64
2022-10-23T07:02:43.626Z,16.63
2022-10-23T07:04:45.673Z,16.68
2022-10-23T07:06:54.759Z,16.73
2022-10-23T07:09:00.723Z,16.66
2022-10-23T07:11:23.535Z,16.68
2022-10-23T07:13:26.115Z,16.71
2022-10-23T07:15:46.846Z,16.74
2022-10-23T07:17:54.058Z,16.72
2022-10-23T07:19:57.726Z,16.70
2022-10-23T07:22:00.031Z,16.72
2022-10-23T07:24:13.776Z,16.74
2022-10-23T07:26:17.095Z,16.73
2022-10-23T07:28:19.540Z,16.73
2022-10-23T07:30:21.482Z,16.59
2022-10-23T07:32:28.751Z,16.57
2022-10-23T07:34:49.653Z,16.46
2022-10-23T07:37:00.478Z,16.48
2022-10-23T07:39:02.757Z,16.52
2022-10-23T07:41:08.986Z,16.52
2022-10-23T07:43:14.021Z,16.52
2022-10-23T07:45:16.107Z,16.48
2022-10-23T07:47:20.015Z,16.46
2022-10-23T07:49:25.580Z,16.45
2022-10-23T07:51:27.510Z,16.45
2022-10-23T07:53:35.622Z,16.44
2022-10-23T07:55:58.077Z,16.43
2022-10-23T07:58:02.353Z,16.47
2022-10-23T08:00:18.604Z,16.54
2022-10-23T08:02:30.837Z,16.57
2022-10-23T08:04:32.771Z,16.66
2022-10-23T08:06:41.406Z,16.69
2022-10-23T08:10:53.477Z,16.68
2022-10-23T08:13:01.590Z,16.71
2022-10-23T08:15:23.437Z,16.67
2022-10-23T08:17:30.169Z,16.65
2022-10-23T08:19:48.551Z,16.70
2022-10-23T08:21:54.868Z,16.69
2022-10-23T08:23:58.102Z,16.75
2022-10-23T08:26:05.556Z,16.77
2022-10-23T08:28:11.912Z,16.79
2022-10-23T08:30:25.271Z,16.80
2022-10-23T08:32:31.211Z,16.79
2022-10-23T08:34:34.775Z,16.79
2022-10-23T08:36:39.375Z,16.66
2022-10-23T08:38:41.807Z,16.61
2022-10-23T08:40:48.703Z,16.63
2022-10-23T08:43:12.149Z,16.64
2022-10-23T08:46:04.136Z,16.71
2022-10-23T08:48:38.250Z,16.74
2022-10-23T08:51:12.898Z,16.83
2022-10-23T08:53:18.149Z,16.79
2022-10-23T08:55:22.962Z,16.90
2022-10-23T08:57:33.581Z,17.00
2022-10-23T08:59:44.391Z,17.02
2022-10-23T09:02:04.848Z,17.03
2022-10-23T09:04:07.292Z,17.12
2022-10-23T09:06:20.359Z,17.17
2022-10-23T09:08:32.032Z,17.24
2022-10-23T09:10:56.887Z,17.28
2022-10-23T09:13:29.188Z,17.26
2022-10-23T09:15:41.765Z,17.31
2022-10-23T09:17:47.999Z,17.31
2022-10-23T09:19:59.299Z,17.36
2022-10-23T09:22:01.668Z,17.39
2022-10-23T09:24:04.458Z,17.45
2022-10-23T09:26:18.590Z,17.35
2022-10-23T09:28:30.423Z,17.48
2022-10-23T09:30:34.015Z,17.54
2022-10-23T09:32:38.463Z,17.52
2022-10-23T09:34:54.748Z,17.49
2022-10-23T09:37:00.201Z,17.56
2022-10-23T09:39:02.426Z,17.56
2022-10-23T09:41:16.184Z,17.63
2022-10-23T09:43:23.473Z,17.71
2022-10-23T09:45:34.968Z,17.71
2022-10-23T09:47:41.399Z,17.73
2022-10-23T09:49:49.232Z,17.75
2022-10-23T09:51:54.508Z,17.75
2022-10-23T09:54:00.858Z,17.76
2022-10-23T09:56:24.471Z,17.78
2022-10-23T09:58:54.844Z,17.76
2022-10-23T10:00:57.574Z,17.87
2022-10-23T10:03:22.707Z,17.84
2022-10-23T10:05:39.894Z,17.87
2022-10-23T10:08:03.618Z,17.86
2022-10-23T10:10:13.911Z,17.87
2022-10-23T10:12:45.897Z,17.83
2022-10-23T10:15:05.272Z,17.75
2022-10-23T10:17:15.083Z,17.80
2022-10-23T10:19:35.219Z,17.78
2022-10-23T10:21:50.614Z,17.87
2022-10-23T10:24:00.697Z,17.92
2022-10-23T10:26:02.669Z,17.90
2022-10-23T10:28:20.914Z,17.93
2022-10-23T10:30:25.007Z,17.96
2022-10-23T10:32:43.504Z,17.93
2022-10-23T10:35:19.397Z,17.95
2022-10-23T10:38:02.998Z,17.95
2022-10-23T10:40:34.801Z,18.03
2022-10-23T10:42:58.652Z,17.90
2022-10-23T10:45:01.816Z,17.90
2022-10-23T10:47:31.728Z,17.87
2022-10-23T10:49:40.888Z,17.90
2022-10-23T10:52:06.862Z,17.97
2022-10-23T10:54:21.153Z,18.00
2022-10-23T10:56:28.156Z,18.00
2022-10-23T10:58:42.211Z,18.01
2022-10-23T11:00:46.810Z,18.04
2022-10-23T11:02:48.633Z,18.08
2022-10-23T11:04:52.971Z,18.08
2022-10-23T11:06:58.179Z,18.08
2022-10-23T11:09:20.606Z,18.06
2022-10-23T11:11:32.572Z,18.08
2022-10-23T11:13:40.501Z,18.07
2022-10-23T11:15:44.307Z,18.06
2022-10-23T11:17:55.508Z,18.01
2022-10-23T11:20:18.658Z,18.05
2022-10-23T11:22:29.704Z,18.00
2022-10-23T11:24:49.468Z,18.01
2022-10-23T11:27:10.849Z,18.09
2022-10-23T11:29:27.917Z,18.08
2022-10-23T11:31:59.852Z,18.11
2022-10-23T11:34:53.050Z,18.14
2022-10-23T11:36:59.031Z,18.13
2022-10-23T11:39:22.336Z,18.15
2022-10-23T11:41:34.007Z,18.20
2022-10-23T11:43:50.642Z,18.18
2022-10-23T11:45:52.602Z,18.24
2022-10-23T11:48:22.951Z,18.23
2022-10-23T11:50:34.342Z,18.29
2022-10-23T11:52:45.618Z,18.31
2022-10-23T11:55:22.814Z,18.31
2022-10-23T11:57:25.399Z,18.41
2022-10-23T11:59:50.118Z,18.40
2022-10-23T12:01:55.715Z,18.37
2022-10-23T12:04:19.043Z,18.35
2022-10-23T12:06:31.508Z,18.31
2022-10-23T12:08:40.599Z,18.34
2022-10-23T12:10:48.326Z,18.37
2022-10-23T12:13:06.275Z,18.40
2022-10-23T12:15:19.182Z,18.35
2022-10-23T12:17:23.920Z,18.32
2022-10-23T12:19:30.753Z,18.38
2022-10-23T12:21:35.900Z,18.36
2022-10-23T12:24:09.778Z,18.38
2022-10-23T12:26:23.638Z,18.37
2022-10-23T12:28:38.280Z,18.33
2022-10-23T12:30:50.811Z,18.41
2022-10-23T12:33:20.866Z,18.37
2022-10-23T12:35:26.055Z,18.35
2022-10-23T12:37:46.365Z,18.39
2022-10-23T12:39:59.363Z,18.32
2022-10-23T12:42:01.345Z,18.36
2022-10-23T12:44:05.341Z,18.42
2022-10-23T12:46:33.983Z,18.48
2022-10-23T12:48:36.528Z,18.62
2022-10-23T12:50:38.562Z,18.70
2022-10-23T12:53:10.111Z,18.76
2022-10-23T12:55:14.648Z,18.89
2022-10-23T12:57:25.841Z,18.86
2022-10-23T12:59:39.344Z,18.86
2022-10-23T13:01:43.347Z,18.87
2022-10-23T13:03:46.203Z,18.92
2022-10-23T13:05:50.749Z,18.87
2022-10-23T13:07:53.181Z,18.88
2022-10-23T13:10:04.990Z,18.84
2022-10-23T13:15:58.314Z,18.82
2022-10-23T13:18:03.700Z,18.81
2022-10-23T13:20:35.362Z,18.85
2022-10-23T13:22:40.546Z,18.88
2022-10-23T13:24:43.259Z,18.91
2022-10-23T13:26:45.594Z,18.95
2022-10-23T13:28:47.960Z,18.98
2022-10-23T13:31:08.199Z,18.95
2022-10-23T13:33:21.979Z,18.95
2022-10-23T13:35:24.783Z,18.94
2022-10-23T13:37:30.685Z,18.95
2022-10-23T13:39:34.272Z,18.97
2022-10-23T13:41:40.110Z,18.96
2022-10-23T13:43:43.235Z,19.01
2022-10-23T13:45:45.625Z,19.00
2022-10-23T13:47:47.864Z,19.00
2022-10-23T13:49:50.179Z,19.07
2022-10-23T13:51:55.368Z,19.07
2022-10-23T13:53:57.782Z,19.04
2022-10-23T13:55:59.859Z,19.02
2022-10-23T13:58:02.760Z,19.03
2022-10-23T14:00:05.404Z,19.03
2022-10-23T14:02:25.118Z,19.02
2022-10-23T14:04:27.593Z,19.06
2022-10-23T14:06:30.552Z,19.07
2022-10-23T14:08:32.532Z,19.07
2022-10-23T14:10:35.187Z,19.05
2022-10-23T14:12:44.383Z,18.97
2022-10-23T14:14:51.948Z,18.98
2022-10-23T14:16:54.990Z,18.98
2022-10-23T14:18:59.797Z,18.96
2022-10-23T14:21:03.195Z,19.02
2022-10-23T14:23:05.498Z,19.04
2022-10-23T14:25:07.794Z,19.03
2022-10-23T14:27:09.846Z,19.05
2022-10-23T14:29:21.186Z,19.02
2022-10-23T14:31:26.349Z,19.08
2022-10-23T14:33:28.379Z,19.19
2022-10-23T14:35:30.695Z,19.19
2022-10-23T14:37:34.475Z,19.18
2022-10-23T14:39:37.006Z,19.19
2022-10-23T14:41:40.641Z,19.18
2022-10-23T14:43:43.322Z,19.14
2022-10-23T14:45:45.521Z,19.13
2022-10-23T14:47:47.845Z,19.06
2022-10-23T14:49:52.513Z,19.03
2022-10-23T14:51:54.695Z,19.03
2022-10-23T14:54:01.763Z,19.03
2022-10-23T14:56:04.834Z,19.01
2022-10-23T14:58:07.372Z,18.99
2022-10-23T15:00:10.202Z,18.97
2022-10-23T15:02:12.416Z,18.96
2022-10-23T15:04:14.931Z,18.95
2022-10-23T15:06:18.495Z,18.89
2022-10-23T15:08:24.801Z,18.87
2022-10-23T15:10:27.319Z,18.88
2022-10-23T15:12:29.544Z,18.89
2022-10-23T15:14:31.914Z,18.87
2022-10-23T15:16:41.311Z,18.87
2022-10-23T15:18:43.688Z,18.86
2022-10-23T15:20:52.628Z,18.81
2022-10-23T15:22:54.675Z,18.79
2022-10-23T15:24:57.535Z,18.78
2022-10-23T15:27:00.381Z,18.76
2022-10-23T15:29:02.696Z,18.75
2022-10-23T15:31:05.603Z,18.71
2022-10-23T15:33:08.036Z,18.70
2022-10-23T15:35:10.168Z,18.65
2022-10-23T15:37:12.135Z,18.62
2022-10-23T15:39:17.677Z,18.57
2022-10-23T15:41:28.374Z,18.50
2022-10-23T15:43:30.445Z,18.49
2022-10-23T15:45:32.748Z,18.45
2022-10-23T15:47:34.885Z,18.40
2022-10-23T15:49:37.554Z,18.38
2022-10-23T15:51:40.897Z,18.34
2022-10-23T15:53:43.166Z,18.32
2022-10-23T15:55:45.694Z,18.27
2022-10-23T15:57:48.057Z,18.22
2022-10-23T15:59:51.450Z,18.14
2022-10-23T16:01:54.354Z,18.09
2022-10-23T16:03:56.662Z,18.04
2022-10-23T16:05:58.768Z,17.99
2022-10-23T16:08:00.929Z,17.96
2022-10-23T16:10:03.139Z,17.92
2022-10-23T16:12:05.465Z,17.87
2022-10-23T16:14:08.453Z,17.82
2022-10-23T16:16:11.129Z,17.77
2022-10-23T16:18:13.340Z,17.74
2022-10-23T16:20:16.257Z,17.70
2022-10-23T16:22:18.688Z,17.64
2022-10-23T16:24:20.689Z,17.62
2022-10-23T16:26:23.794Z,17.60
2022-10-23T16:28:25.838Z,17.54
2022-10-23T16:30:28.287Z,17.50
2022-10-23T16:32:30.390Z,17.44
2022-10-23T16:34:32.439Z,17.38
2022-10-23T16:36:34.939Z,17.27
2022-10-23T16:38:56.030Z,17.22
2022-10-23T16:41:18.333Z,17.18
2022-10-23T16:43:38.835Z,17.17
2022-10-23T16:46:12.944Z,17.14
2022-10-23T16:48:15.210Z,17.10
2022-10-23T16:50:18.038Z,17.09
2022-10-23T16:52:20.328Z,17.06
2022-10-23T16:54:22.443Z,17.04
2022-10-23T16:56:28.797Z,17.02
2022-10-23T16:58:30.850Z,17.01
2022-10-23T17:00:35.382Z,16.96
2022-10-23T17:02:38.365Z,16.94
2022-10-23T17:04:40.731Z,16.89
2022-10-23T17:06:42.726Z,16.85
2022-10-23T17:08:47.521Z,16.82
2022-10-23T17:10:49.501Z,16.80
2022-10-23T17:12:51.748Z,16.76
2022-10-23T17:14:53.864Z,16.72
2022-10-23T17:17:01.664Z,16.63
2022-10-23T17:19:15.995Z,16.63
2022-10-23T17:21:23.270Z,16.61
2022-10-23T17:23:25.554Z,16.58
2022-10-23T17:25:27.939Z,16.59
2022-10-23T17:27:29.858Z,16.56
2022-10-23T17:29:31.997Z,16.55
2022-10-23T17:31:36.062Z,16.52
2022-10-23T17:33:38.332Z,16.48
2022-10-23T17:35:40.281Z,16.45
2022-10-23T17:37:42.339Z,16.42
2022-10-23T17:39:44.442Z,16.38
2022-10-23T17:41:47.399Z,16.35
2022-10-23T17:43:50.441Z,16.35
2022-10-23T17:45:52.505Z,16.31
2022-10-23T17:47:54.616Z,16.28
2022-10-23T17:49:56.715Z,16.23
2022-10-23T17:51:58.953Z,16.20
2022-10-23T17:54:04.643Z,16.16
2022-10-23T17:56:08.945Z,16.12
2022-10-23T17:58:11.133Z,16.09
2022-10-23T18:00:13.242Z,16.08
2022-10-23T18:02:15.342Z,16.08
2022-10-23T18:04:19.238Z,16.06
2022-10-23T18:06:29.657Z,16.02
2022-10-23T18:08:31.708Z,16.03
2022-10-23T18:10:36.290Z,15.99
2022-10-23T18:16:27.829Z,15.92
2022-10-23T18:18:29.990Z,15.95
2022-10-23T18:20:31.964Z,15.93
2022-10-23T18:22:34.174Z,15.89
2022-10-23T18:24:38.408Z,15.85
2022-10-23T18:26:41.665Z,15.82
2022-10-23T18:28:45.766Z,15.79
2022-10-23T18:30:50.188Z,15.75
2022-10-23T18:32:55.958Z,15.73
2022-10-23T18:34:58.286Z,15.72
2022-10-23T18:37:01.116Z,15.71
2022-10-23T18:39:04.837Z,15.71
2022-10-23T18:41:07.185Z,15.68
2022-10-23T18:43:14.853Z,15.65
2022-10-23T18:45:17.400Z,15.62
2022-10-23T18:47:19.484Z,15.56
2022-10-23T18:49:21.654Z,15.42
2022-10-23T18:51:32.166Z,15.34
2022-10-23T18:53:34.266Z,15.36
2022-10-23T18:55:36.408Z,15.27
2022-10-23T18:57:39.109Z,15.25
2022-10-23T18:59:41.118Z,15.20
2022-10-23T19:01:43.714Z,15.19
2022-10-23T19:03:45.993Z,15.16
2022-10-23T19:05:48.802Z,15.12
2022-10-23T19:07:51.071Z,15.23
2022-10-23T19:09:53.473Z,15.21
2022-10-23T19:11:55.605Z,15.18
2022-10-23T19:13:57.565Z,15.20
2022-10-23T19:15:59.774Z,15.23
2022-10-23T19:18:02.290Z,15.19
2022-10-23T19:20:11.238Z,15.20
2022-10-23T19:22:15.481Z,15.26
2022-10-23T19:24:25.854Z,15.34
2022-10-23T19:26:29.754Z,15.33
2022-10-23T19:28:37.598Z,15.40
2022-10-23T19:30:40.380Z,15.39
2022-10-23T19:32:44.322Z,15.45
2022-10-23T19:34:46.724Z,15.45
2022-10-23T19:36:50.000Z,15.48
2022-10-23T19:38:51.966Z,15.56
2022-10-23T19:40:54.112Z,15.62
2022-10-23T19:42:56.204Z,15.68
2022-10-23T19:44:58.371Z,15.77
2022-10-23T19:47:00.399Z,15.80
2022-10-23T19:49:02.383Z,15.85
2022-10-23T19:51:09.365Z,15.86
2022-10-23T19:53:11.362Z,15.90
2022-10-23T19:56:15.243Z,15.87
2022-10-23T19:58:17.079Z,15.93
2022-10-23T20:00:20.653Z,15.91
2022-10-23T20:02:22.800Z,15.92
2022-10-23T20:04:24.923Z,15.88
2022-10-23T20:06:29.486Z,15.84
2022-10-23T20:08:34.952Z,15.78
2022-10-23T20:10:41.880Z,15.74
2022-10-23T20:12:47.539Z,15.73
2022-10-23T20:15:01.925Z,15.72
2022-10-23T20:17:03.813Z,15.70
2022-10-23T20:19:09.582Z,15.74
2022-10-23T20:21:11.770Z,15.64
2022-10-23T20:23:14.097Z,15.55
2022-10-23T20:25:19.137Z,15.53
2022-10-23T20:27:21.244Z,15.57
2022-10-23T20:29:24.941Z,15.58
2022-10-23T20:31:28.335Z,15.56
2022-10-23T20:33:32.887Z,15.59
2022-10-23T20:35:42.641Z,15.62
2022-10-23T20:37:44.754Z,15.65
2022-10-23T20:39:47.252Z,15.70
2022-10-23T20:41:49.617Z,15.73
2022-10-23T20:43:51.669Z,15.74
2022-10-23T20:45:53.513Z,15.79
2022-10-23T20:47:57.703Z,15.83
2022-10-23T20:50:00.034Z,15.83
2022-10-23T20:52:03.254Z,15.84
2022-10-23T20:54:08.189Z,15.76
2022-10-23T20:56:14.375Z,15.81
2022-10-23T20:58:16.298Z,15.84
2022-10-23T21:01:21.630Z,15.79
2022-10-23T21:03:23.754Z,15.81
2022-10-23T21:05:25.847Z,15.79
2022-10-23T21:07:27.978Z,15.85
2022-10-23T21:09:30.847Z,15.79
2022-10-23T21:11:34.128Z,15.80
2022-10-23T21:13:36.651Z,15.85
2022-10-23T21:15:38.736Z,15.83
2022-10-23T21:17:41.300Z,15.80
2022-10-23T21:19:43.482Z,15.81
2022-10-23T21:21:45.423Z,15.84
2022-10-23T21:23:49.504Z,15.81
2022-10-23T21:25:51.489Z,15.84
2022-10-23T21:27:53.498Z,15.81
2022-10-23T21:29:55.515Z,15.86
2022-10-23T21:32:00.128Z,15.84
2022-10-23T21:34:02.467Z,15.81
2022-10-23T21:36:13.665Z,15.82
2022-10-23T21:38:16.416Z,15.84
2022-10-23T21:40:18.763Z,15.86
2022-10-23T21:42:21.317Z,15.89
2022-10-23T21:44:23.410Z,15.91
2022-10-23T21:46:26.982Z,15.90
2022-10-23T21:48:29.166Z,15.99
2022-10-23T21:50:34.153Z,15.99
2022-10-23T21:52:36.401Z,15.97
2022-10-23T21:54:38.486Z,15.99
2022-10-23T21:56:45.816Z,15.93
2022-10-23T21:58:47.805Z,15.96
2022-10-23T22:00:50.271Z,15.88
2022-10-23T22:02:52.370Z,15.98
2022-10-23T22:04:54.748Z,15.97
2022-10-23T22:06:56.723Z,15.99
2022-10-23T22:09:00.648Z,15.94
2022-10-23T22:11:05.582Z,15.87
2022-10-23T22:13:07.612Z,15.94
2022-10-23T22:15:10.302Z,15.89
2022-10-23T22:17:12.277Z,15.88
2022-10-23T22:19:16.491Z,15.89
2022-10-23T22:21:21.249Z,15.87
2022-10-23T22:23:23.339Z,15.83
2022-10-23T22:25:25.479Z,15.79
2022-10-23T22:27:28.085Z,15.78
2022-10-23T22:29:31.059Z,15.82
2022-10-23T22:31:34.867Z,15.83
2022-10-23T22:33:37.028Z,15.87
2022-10-23T22:35:39.167Z,15.84
2022-10-23T22:37:41.503Z,15.81
2022-10-23T22:39:43.535Z,15.80
2022-10-23T22:41:47.189Z,15.81
2022-10-23T22:43:53.641Z,15.80
2022-10-23T22:46:02.947Z,15.65
2022-10-23T22:48:05.180Z,15.66
2022-10-23T22:50:07.863Z,15.66
2022-10-23T22:52:10.058Z,15.64
2022-10-23T22:54:12.135Z,15.67
2022-10-23T22:56:18.075Z,15.63
2022-10-23T22:58:20.641Z,15.66
2022-10-23T23:00:22.767Z,15.64
2022-10-23T23:02:24.700Z,15.67
2022-10-23T23:04:43.125Z,15.66
2022-10-23T23:06:45.849Z,15.66
2022-10-23T23:08:49.436Z,15.67
2022-10-23T23:10:56.587Z,15.58
2022-10-23T23:12:58.606Z,15.53
2022-10-23T23:15:00.954Z,15.54
2022-10-23T23:17:03.905Z,15.38
2022-10-23T23:19:06.429Z,15.39
2022-10-23T23:21:08.396Z,15.39
2022-10-23T23:23:12.700Z,15.43
2022-10-23T23:25:14.828Z,15.33
2022-10-23T23:27:16.799Z,15.33
2022-10-23T23:29:19.667Z,15.35
2022-10-23T23:31:25.534Z,15.33
2022-10-23T23:33:27.808Z,15.30
2022-10-23T23:35:30.144Z,15.29
2022-10-23T23:37:32.152Z,15.26
2022-10-23T23:39:34.315Z,15.23
2022-10-23T23:41:36.540Z,15.22
2022-10-23T23:43:38.880Z,15.28
2022-10-23T23:45:41.369Z,15.33
2022-10-23T23:47:43.626Z,15.33
2022-10-23T23:49:45.954Z,15.37
2022-10-23T23:51:48.151Z,15.39
2022-10-23T23:53:51.301Z,15.40
2022-10-23T23:55:53.461Z,15.34
2022-10-23T23:57:56.687Z,15.39
2022-10-23T23:59:59.075Z,15.34
